createdAt,value
2018-06-25T00:00:50.593Z,1016.15
2018-06-25T00:01:50.537Z,1016.17
2018-06-25T00:02:50.472Z,1016.16
2018-06-25T00:03:50.406Z,1016.21
2018-06-25T00:04:50.335Z,1016.19
2018-06-25T00:05:50.279Z,1016.17
2018-06-25T00:06:50.222Z,1016.22
2018-06-25T00:07:50.151Z,1016.21
2018-06-25T00:08:50.091Z,1016.23
2018-06-25T00:09:50.042Z,1016.26
2018-06-25T00:10:49.958Z,1016.26
2018-06-25T00:11:49.896Z,1016.25
2018-06-25T00:12:49.836Z,1016.24
2018-06-25T00:13:49.772Z,1016.26
2018-06-25T00:14:49.709Z,1016.25
2018-06-25T00:15:49.648Z,1016.26
2018-06-25T00:16:49.582Z,1016.27
2018-06-25T00:17:49.524Z,1016.30
2018-06-25T00:18:49.460Z,1016.28
2018-06-25T00:19:49.393Z,1016.28
2018-06-25T00:20:49.340Z,1016.24
2018-06-25T00:21:49.268Z,1016.21
2018-06-25T00:22:49.204Z,1016.22
2018-06-25T00:23:49.136Z,1016.22
2018-06-25T00:24:49.077Z,1016.19
2018-06-25T00:25:49.021Z,1016.18
2018-06-25T00:26:48.949Z,1016.26
2018-06-25T00:27:48.888Z,1016.16
2018-06-25T00:28:48.841Z,1016.25
2018-06-25T00:29:48.763Z,1016.24
2018-06-25T00:30:48.696Z,1016.22
2018-06-25T00:31:48.635Z,1016.22
2018-06-25T00:32:48.574Z,1016.25
2018-06-25T00:33:48.513Z,1016.18
2018-06-25T00:34:48.446Z,1016.17
2018-06-25T00:35:48.383Z,1016.20
2018-06-25T00:36:48.321Z,1016.25
2018-06-25T00:37:48.257Z,1016.22
2018-06-25T00:38:48.199Z,1016.14
2018-06-25T00:39:48.136Z,1016.22
2018-06-25T00:40:48.073Z,1016.22
2018-06-25T00:41:48.009Z,1016.22
2018-06-25T00:42:47.940Z,1016.21
2018-06-25T00:43:47.876Z,1016.19
2018-06-25T00:44:47.819Z,1016.21
2018-06-25T00:45:47.750Z,1016.23
2018-06-25T00:46:47.689Z,1016.26
2018-06-25T00:47:47.627Z,1016.24
2018-06-25T00:48:47.561Z,1016.19
2018-06-25T00:49:47.505Z,1016.18
2018-06-25T00:50:47.438Z,1016.20
2018-06-25T00:51:47.370Z,1016.18
2018-06-25T00:52:47.310Z,1016.17
2018-06-25T00:53:47.244Z,1016.16
2018-06-25T00:54:47.179Z,1016.12
2018-06-25T00:55:47.115Z,1016.17
2018-06-25T00:56:47.054Z,1016.12
2018-06-25T00:57:46.988Z,1016.14
2018-06-25T00:58:46.928Z,1016.14
2018-06-25T00:59:46.865Z,1016.14
2018-06-25T01:00:46.807Z,1016.16
2018-06-25T01:01:46.739Z,1016.13
2018-06-25T01:02:46.671Z,1016.14
2018-06-25T01:03:46.607Z,1016.15
2018-06-25T01:04:46.555Z,1016.15
2018-06-25T01:05:46.482Z,1016.08
2018-06-25T01:06:46.421Z,1016.16
2018-06-25T01:07:46.353Z,1016.14
2018-06-25T01:08:46.290Z,1016.09
2018-06-25T01:09:46.229Z,1016.14
2018-06-25T01:10:46.173Z,1016.13
2018-06-25T01:11:46.111Z,1016.14
2018-06-25T01:12:46.044Z,1016.15
2018-06-25T01:13:45.977Z,1016.12
2018-06-25T01:14:45.914Z,1016.09
2018-06-25T01:15:45.848Z,1016.12
2018-06-25T01:16:45.790Z,1016.10
2018-06-25T01:17:45.721Z,1016.08
2018-06-25T01:18:45.663Z,1016.13
2018-06-25T01:19:45.600Z,1016.15
2018-06-25T01:20:45.533Z,1016.11
2018-06-25T01:21:45.471Z,1016.14
2018-06-25T01:22:45.409Z,1016.07
2018-06-25T01:23:45.348Z,1016.12
2018-06-25T01:24:45.283Z,1016.12
2018-06-25T01:25:45.221Z,1016.08
2018-06-25T01:26:45.151Z,1016.07
2018-06-25T01:27:45.093Z,1016.02
2018-06-25T01:28:45.055Z,1016.07
2018-06-25T01:29:44.964Z,1016.04
2018-06-25T01:30:44.909Z,1016.07
2018-06-25T01:31:44.839Z,1016.08
2018-06-25T01:32:44.840Z,1016.09
2018-06-25T01:33:44.707Z,1016.11
2018-06-25T01:34:44.658Z,1016.13
2018-06-25T01:35:44.580Z,1016.12
2018-06-25T01:36:44.517Z,1016.15
2018-06-25T01:37:44.456Z,1016.16
2018-06-25T01:38:44.391Z,1016.15
2018-06-25T01:39:44.331Z,1016.14
2018-06-25T01:40:44.265Z,1016.15
2018-06-25T01:41:44.211Z,1016.15
2018-06-25T01:42:44.142Z,1016.07
2018-06-25T01:43:44.077Z,1016.07
2018-06-25T01:44:44.016Z,1016.03
2018-06-25T01:45:43.949Z,1016.01
2018-06-25T01:46:43.897Z,1016.04
2018-06-25T01:47:43.821Z,1016.02
2018-06-25T01:48:43.759Z,1016.01
2018-06-25T01:49:43.691Z,1016.05
2018-06-25T01:50:43.633Z,1016.04
2018-06-25T01:51:43.569Z,1016.02
2018-06-25T01:52:43.503Z,1016.09
2018-06-25T01:53:43.436Z,1016.05
2018-06-25T01:54:43.377Z,1016.03
2018-06-25T01:55:43.316Z,1016.05
2018-06-25T01:56:43.252Z,1016.08
2018-06-25T01:57:43.187Z,1016.05
2018-06-25T01:58:43.119Z,1016.09
2018-06-25T01:59:43.064Z,1016.10
2018-06-25T02:00:43.003Z,1016.12
2018-06-25T02:01:42.932Z,1016.13
2018-06-25T02:02:42.870Z,1016.15
2018-06-25T02:03:42.805Z,1016.14
2018-06-25T02:04:42.742Z,1016.11
2018-06-25T02:05:42.679Z,1016.07
2018-06-25T02:06:42.614Z,1016.08
2018-06-25T02:07:42.551Z,1016.10
2018-06-25T02:08:42.487Z,1016.10
2018-06-25T02:09:42.426Z,1016.14
2018-06-25T02:10:42.360Z,1016.10
2018-06-25T02:11:42.298Z,1016.13
2018-06-25T02:12:42.241Z,1016.11
2018-06-25T02:13:42.174Z,1016.16
2018-06-25T02:14:42.110Z,1016.13
2018-06-25T02:15:42.041Z,1016.14
2018-06-25T02:16:41.981Z,1016.16
2018-06-25T02:17:41.920Z,1016.19
2018-06-25T02:18:41.850Z,1016.19
2018-06-25T02:19:41.788Z,1016.20
2018-06-25T02:20:41.721Z,1016.19
2018-06-25T02:21:41.662Z,1016.22
2018-06-25T02:22:41.600Z,1016.20
2018-06-25T02:23:41.536Z,1016.20
2018-06-25T02:24:41.469Z,1016.20
2018-06-25T02:25:41.410Z,1016.24
2018-06-25T02:26:41.348Z,1016.23
2018-06-25T02:27:41.281Z,1016.24
2018-06-25T02:28:41.221Z,1016.27
2018-06-25T02:29:41.152Z,1016.23
2018-06-25T02:30:41.093Z,1016.19
2018-06-25T02:31:41.021Z,1016.22
2018-06-25T02:32:40.960Z,1016.21
2018-06-25T02:33:40.904Z,1016.22
2018-06-25T02:34:40.834Z,1016.18
2018-06-25T02:35:40.775Z,1016.22
2018-06-25T02:36:40.711Z,1016.20
2018-06-25T02:37:40.646Z,1016.16
2018-06-25T02:38:40.681Z,1016.21
2018-06-25T02:39:40.515Z,1016.17
2018-06-25T02:40:40.456Z,1016.18
2018-06-25T02:41:40.393Z,1016.18
2018-06-25T02:42:40.325Z,1016.15
2018-06-25T02:43:40.263Z,1016.16
2018-06-25T02:44:40.205Z,1016.17
2018-06-25T02:45:40.141Z,1016.18
2018-06-25T02:46:40.072Z,1016.17
2018-06-25T02:47:40.035Z,1016.18
2018-06-25T02:48:39.946Z,1016.23
2018-06-25T02:49:39.885Z,1016.18
2018-06-25T02:50:39.816Z,1016.22
2018-06-25T02:51:39.757Z,1016.21
2018-06-25T02:52:39.694Z,1016.22
2018-06-25T02:53:39.632Z,1016.24
2018-06-25T02:54:39.565Z,1016.26
2018-06-25T02:55:39.504Z,1016.33
2018-06-25T02:56:39.440Z,1016.38
2018-06-25T02:57:39.379Z,1016.39
2018-06-25T02:58:39.312Z,1016.40
2018-06-25T02:59:39.254Z,1016.38
2018-06-25T03:00:39.190Z,1016.36
2018-06-25T03:01:39.119Z,1016.37
2018-06-25T03:02:39.054Z,1016.36
2018-06-25T03:03:38.996Z,1016.38
2018-06-25T03:04:38.928Z,1016.37
2018-06-25T03:05:38.863Z,1016.40
2018-06-25T03:06:38.804Z,1016.43
2018-06-25T03:07:38.742Z,1016.43
2018-06-25T03:08:38.676Z,1016.44
2018-06-25T03:09:38.615Z,1016.51
2018-06-25T03:10:38.555Z,1016.50
2018-06-25T03:11:38.493Z,1016.53
2018-06-25T03:12:38.423Z,1016.54
2018-06-25T03:13:38.361Z,1016.56
2018-06-25T03:14:38.300Z,1016.55
2018-06-25T03:15:38.232Z,1016.48
2018-06-25T03:16:38.177Z,1016.53
2018-06-25T03:17:38.117Z,1016.58
2018-06-25T03:18:38.050Z,1016.52
2018-06-25T03:19:37.977Z,1016.53
2018-06-25T03:20:37.915Z,1016.54
2018-06-25T03:21:37.852Z,1016.55
2018-06-25T03:22:37.786Z,1016.55
2018-06-25T03:23:37.719Z,1016.56
2018-06-25T03:24:37.673Z,1016.55
2018-06-25T03:25:37.592Z,1016.57
2018-06-25T03:26:37.536Z,1016.55
2018-06-25T03:27:37.472Z,1016.60
2018-06-25T03:28:37.400Z,1016.60
2018-06-25T03:29:37.342Z,1016.59
2018-06-25T03:30:37.278Z,1016.59
2018-06-25T03:31:37.216Z,1016.54
2018-06-25T03:32:37.160Z,1016.57
2018-06-25T03:33:37.089Z,1016.51
2018-06-25T03:34:37.026Z,1016.61
2018-06-25T03:35:36.956Z,1016.55
2018-06-25T03:36:36.894Z,1016.58
2018-06-25T03:37:36.846Z,1016.61
2018-06-25T03:38:36.771Z,1016.62
2018-06-25T03:39:36.708Z,1016.64
2018-06-25T03:40:36.643Z,1016.70
2018-06-25T03:41:36.580Z,1016.66
2018-06-25T03:42:36.513Z,1016.64
2018-06-25T03:43:36.450Z,1016.63
2018-06-25T03:44:36.391Z,1016.63
2018-06-25T03:45:36.338Z,1016.69
2018-06-25T03:46:36.260Z,1016.68
2018-06-25T03:47:36.194Z,1016.75
2018-06-25T03:48:36.131Z,1016.73
2018-06-25T03:49:36.071Z,1016.73
2018-06-25T03:50:36.011Z,1016.78
2018-06-25T03:51:35.941Z,1016.72
2018-06-25T03:52:35.878Z,1016.77
2018-06-25T03:53:35.821Z,1016.82
2018-06-25T03:54:35.750Z,1016.86
2018-06-25T03:55:35.685Z,1016.86
2018-06-25T03:56:35.624Z,1016.88
2018-06-25T03:57:35.556Z,1016.91
2018-06-25T03:58:35.497Z,1016.89
2018-06-25T03:59:35.435Z,1016.93
2018-06-25T04:00:35.377Z,1016.98
2018-06-25T04:01:35.310Z,1016.90
2018-06-25T04:02:35.246Z,1016.92
2018-06-25T04:03:35.179Z,1016.97
2018-06-25T04:04:35.126Z,1016.93
2018-06-25T04:05:35.052Z,1016.93
2018-06-25T04:06:34.992Z,1016.99
2018-06-25T04:07:34.924Z,1016.99
2018-06-25T04:08:34.857Z,1016.97
2018-06-25T04:09:34.796Z,1017.01
2018-06-25T04:10:34.736Z,1016.96
2018-06-25T04:11:34.674Z,1016.98
2018-06-25T04:12:34.606Z,1017.05
2018-06-25T04:13:34.545Z,1017.01
2018-06-25T04:14:34.482Z,1017.04
2018-06-25T04:15:34.416Z,1017.11
2018-06-25T04:16:34.355Z,1017.07
2018-06-25T04:17:34.301Z,1017.13
2018-06-25T04:18:34.227Z,1017.14
2018-06-25T04:19:34.162Z,1017.12
2018-06-25T04:20:34.135Z,1017.17
2018-06-25T04:21:34.034Z,1017.13
2018-06-25T04:22:33.978Z,1017.13
2018-06-25T04:23:33.908Z,1017.14
2018-06-25T04:24:33.851Z,1017.13
2018-06-25T04:25:33.799Z,1017.14
2018-06-25T04:26:33.720Z,1017.14
2018-06-25T04:27:33.653Z,1017.21
2018-06-25T04:28:33.591Z,1017.21
2018-06-25T04:29:33.538Z,1017.21
2018-06-25T04:30:33.491Z,1017.25
2018-06-25T04:31:33.405Z,1017.23
2018-06-25T04:32:33.341Z,1017.24
2018-06-25T04:33:33.284Z,1017.22
2018-06-25T04:34:33.212Z,1017.22
2018-06-25T04:35:33.156Z,1017.24
2018-06-25T04:36:33.087Z,1017.25
2018-06-25T04:37:33.022Z,1017.25
2018-06-25T04:38:32.952Z,1017.23
2018-06-25T04:39:32.890Z,1017.24
2018-06-25T04:40:32.830Z,1017.30
2018-06-25T04:41:32.771Z,1017.26
2018-06-25T04:42:32.706Z,1017.27
2018-06-25T04:43:32.641Z,1017.27
2018-06-25T04:44:32.590Z,1017.31
2018-06-25T04:45:32.515Z,1017.34
2018-06-25T04:46:32.449Z,1017.30
2018-06-25T04:47:32.385Z,1017.34
2018-06-25T04:48:32.324Z,1017.38
2018-06-25T04:49:32.267Z,1017.37
2018-06-25T04:50:32.219Z,1017.40
2018-06-25T04:51:32.135Z,1017.44
2018-06-25T04:52:32.066Z,1017.45
2018-06-25T04:53:32.002Z,1017.44
2018-06-25T04:54:31.954Z,1017.45
2018-06-25T04:55:31.879Z,1017.43
2018-06-25T04:56:31.817Z,1017.46
2018-06-25T04:57:31.751Z,1017.50
2018-06-25T04:58:31.686Z,1017.52
2018-06-25T04:59:31.634Z,1017.58
2018-06-25T05:00:31.607Z,1017.55
2018-06-25T05:01:31.535Z,1017.61
2018-06-25T05:02:31.441Z,1017.61
2018-06-25T05:03:31.373Z,1017.56
2018-06-25T05:04:31.308Z,1017.54
2018-06-25T05:05:31.254Z,1017.56
2018-06-25T05:06:31.183Z,1017.56
2018-06-25T05:07:31.129Z,1017.56
2018-06-25T05:08:31.061Z,1017.55
2018-06-25T05:09:30.992Z,1017.59
2018-06-25T05:10:30.927Z,1017.66
2018-06-25T05:11:30.864Z,1017.65
2018-06-25T05:12:30.802Z,1017.62
2018-06-25T05:13:30.737Z,1017.66
2018-06-25T05:14:30.680Z,1017.63
2018-06-25T05:15:30.623Z,1017.65
2018-06-25T05:16:30.552Z,1017.66
2018-06-25T05:17:30.489Z,1017.67
2018-06-25T05:18:30.422Z,1017.67
2018-06-25T05:19:30.362Z,1017.67
2018-06-25T05:20:30.303Z,1017.70
2018-06-25T05:21:30.237Z,1017.71
2018-06-25T05:22:30.172Z,1017.70
2018-06-25T05:23:30.176Z,1017.69
2018-06-25T05:24:30.048Z,1017.69
2018-06-25T05:25:29.984Z,1017.68
2018-06-25T05:26:29.932Z,1017.67
2018-06-25T05:27:29.854Z,1017.71
2018-06-25T05:28:29.797Z,1017.74
2018-06-25T05:29:29.741Z,1017.74
2018-06-25T05:30:29.664Z,1017.76
2018-06-25T05:31:29.601Z,1017.81
2018-06-25T05:32:29.537Z,1017.74
2018-06-25T05:33:29.472Z,1017.73
2018-06-25T05:34:29.416Z,1017.73
2018-06-25T05:35:29.355Z,1017.76
2018-06-25T05:36:29.286Z,1017.78
2018-06-25T05:37:29.226Z,1017.76
2018-06-25T05:38:29.162Z,1017.76
2018-06-25T05:39:29.141Z,1017.80
2018-06-25T05:40:29.037Z,1017.79
2018-06-25T05:41:28.971Z,1017.80
2018-06-25T05:42:28.904Z,1017.81
2018-06-25T05:43:28.869Z,1017.85
2018-06-25T05:44:28.786Z,1017.87
2018-06-25T05:45:28.713Z,1017.87
2018-06-25T05:46:38.269Z,1017.90
2018-06-25T05:48:21.954Z,1017.90
2018-06-25T05:49:29.494Z,1017.94
2018-06-25T05:51:15.192Z,1017.90
2018-06-25T05:52:15.067Z,1017.86
2018-06-25T05:54:17.026Z,1017.92
2018-06-25T05:55:08.292Z,1017.92
2018-06-25T05:56:08.220Z,1017.95
2018-06-25T05:57:08.151Z,1017.92
2018-06-25T05:58:08.087Z,1017.89
2018-06-25T05:59:08.031Z,1017.91
2018-06-25T06:00:07.962Z,1017.94
2018-06-25T06:01:07.894Z,1018.05
2018-06-25T06:02:07.830Z,1018.09
2018-06-25T06:03:07.775Z,1018.10
2018-06-25T06:04:07.703Z,1018.13
2018-06-25T06:05:07.644Z,1018.09
2018-06-25T06:06:07.581Z,1018.08
2018-06-25T06:07:07.520Z,1018.07
2018-06-25T06:08:07.455Z,1018.01
2018-06-25T06:09:07.466Z,1018.06
2018-06-25T06:10:07.333Z,1017.97
2018-06-25T06:11:07.264Z,1017.93
2018-06-25T06:12:07.216Z,1017.96
2018-06-25T06:13:07.149Z,1018.07
2018-06-25T06:14:07.091Z,1018.01
2018-06-25T06:15:07.018Z,1017.96
2018-06-25T06:16:06.945Z,1017.91
2018-06-25T06:17:06.893Z,1017.91
2018-06-25T06:18:06.838Z,1017.97
2018-06-25T06:19:06.762Z,1017.98
2018-06-25T06:20:06.704Z,1018.04
2018-06-25T06:21:06.639Z,1018.04
2018-06-25T06:22:06.574Z,1018.02
2018-06-25T06:23:06.505Z,1018.03
2018-06-25T06:24:06.443Z,1018.02
2018-06-25T06:25:06.384Z,1017.99
2018-06-25T06:26:06.435Z,1018.09
2018-06-25T06:27:06.257Z,1018.24
2018-06-25T06:28:06.196Z,1018.32
2018-06-25T06:29:06.136Z,1018.18
2018-06-25T06:30:06.067Z,1018.16
2018-06-25T06:31:06.007Z,1018.06
2018-06-25T06:32:05.967Z,1018.04
2018-06-25T06:33:05.894Z,1018.02
2018-06-25T06:34:05.829Z,1018.00
2018-06-25T06:35:13.407Z,1017.97
2018-06-25T06:36:59.065Z,1018.00
2018-06-25T06:37:58.959Z,1018.06
2018-06-25T06:39:52.357Z,1018.07
2018-06-25T06:40:52.192Z,1018.06
2018-06-25T06:42:47.093Z,1018.11
2018-06-25T06:43:46.383Z,1018.12
2018-06-25T06:45:39.690Z,1018.12
2018-06-25T06:46:39.588Z,1018.13
2018-06-25T06:48:33.895Z,1018.19
2018-06-25T06:49:33.802Z,1018.12
2018-06-25T06:51:34.760Z,1018.22
2018-06-25T06:52:27.011Z,1018.26
2018-06-25T06:53:26.986Z,1018.23
2018-06-25T06:54:26.898Z,1018.12
2018-06-25T06:55:26.856Z,1018.13
2018-06-25T06:56:26.754Z,1018.22
2018-06-25T06:57:34.355Z,1018.22
2018-06-25T06:59:21.002Z,1018.24
2018-06-25T07:00:20.903Z,1018.22
2018-06-25T07:02:15.192Z,1018.19
2018-06-25T07:03:15.096Z,1018.23
2018-06-25T07:04:15.034Z,1018.20
2018-06-25T07:05:14.967Z,1018.22
2018-06-25T07:06:14.909Z,1018.28
2018-06-25T07:07:14.848Z,1018.35
2018-06-25T07:08:14.781Z,1018.44
2018-06-25T07:09:14.728Z,1018.49
2018-06-25T07:10:14.690Z,1018.43
2018-06-25T07:11:14.590Z,1018.43
2018-06-25T07:12:14.537Z,1018.35
2018-06-25T07:13:14.466Z,1018.36
2018-06-25T07:14:14.418Z,1018.36
2018-06-25T07:15:14.339Z,1018.38
2018-06-25T07:16:14.281Z,1018.37
2018-06-25T07:17:14.219Z,1018.36
2018-06-25T07:18:14.153Z,1018.35
2018-06-25T07:19:14.093Z,1018.35
2018-06-25T07:20:14.044Z,1018.35
2018-06-25T07:21:13.966Z,1018.38
2018-06-25T07:22:13.906Z,1018.35
2018-06-25T07:23:13.862Z,1018.32
2018-06-25T07:24:13.782Z,1018.31
2018-06-25T07:25:13.720Z,1018.26
2018-06-25T07:26:13.655Z,1018.37
2018-06-25T07:27:13.612Z,1018.34
2018-06-25T07:28:13.531Z,1018.36
2018-06-25T07:29:13.545Z,1018.33
2018-06-25T07:30:13.421Z,1018.39
2018-06-25T07:31:13.344Z,1018.45
2018-06-25T07:32:13.284Z,1018.44
2018-06-25T07:33:13.220Z,1018.46
2018-06-25T07:34:13.159Z,1018.49
2018-06-25T07:35:13.101Z,1018.51
2018-06-25T07:36:13.032Z,1018.53
2018-06-25T07:37:12.970Z,1018.65
2018-06-25T07:38:12.915Z,1018.61
2018-06-25T07:39:12.843Z,1018.54
2018-06-25T07:40:12.782Z,1018.51
2018-06-25T07:41:12.722Z,1018.51
2018-06-25T07:42:12.658Z,1018.55
2018-06-25T07:43:12.601Z,1018.55
2018-06-25T07:44:12.551Z,1018.56
2018-06-25T07:45:12.475Z,1018.53
2018-06-25T07:46:12.402Z,1018.55
2018-06-25T07:47:12.424Z,1018.55
2018-06-25T07:48:12.287Z,1018.57
2018-06-25T07:49:12.218Z,1018.61
2018-06-25T07:50:12.195Z,1018.58
2018-06-25T07:51:12.108Z,1018.61
2018-06-25T07:52:12.041Z,1018.61
2018-06-25T07:53:11.978Z,1018.64
2018-06-25T07:54:11.927Z,1018.67
2018-06-25T07:55:11.850Z,1018.59
2018-06-25T07:56:11.788Z,1018.57
2018-06-25T07:57:11.726Z,1018.54
2018-06-25T07:58:11.664Z,1018.61
2018-06-25T07:59:11.707Z,1018.68
2018-06-25T08:00:11.542Z,1018.73
2018-06-25T08:01:11.473Z,1018.72
2018-06-25T08:02:11.416Z,1018.71
2018-06-25T08:03:11.368Z,1018.71
2018-06-25T08:04:11.282Z,1018.73
2018-06-25T08:05:11.238Z,1018.75
2018-06-25T08:06:11.214Z,1018.68
2018-06-25T08:07:11.104Z,1018.65
2018-06-25T08:08:11.040Z,1018.69
2018-06-25T08:09:10.996Z,1018.65
2018-06-25T08:10:10.978Z,1018.71
2018-06-25T08:11:10.850Z,1018.66
2018-06-25T08:12:10.803Z,1018.67
2018-06-25T08:13:10.726Z,1018.69
2018-06-25T08:14:10.663Z,1018.64
2018-06-25T08:15:10.612Z,1018.69
2018-06-25T08:16:10.573Z,1018.75
2018-06-25T08:17:10.477Z,1018.71
2018-06-25T08:18:10.412Z,1018.66
2018-06-25T08:19:10.369Z,1018.68
2018-06-25T08:20:10.291Z,1018.69
2018-06-25T08:21:10.224Z,1018.73
2018-06-25T08:22:10.176Z,1018.69
2018-06-25T08:23:10.105Z,1018.73
2018-06-25T08:24:10.041Z,1018.71
2018-06-25T08:25:10.019Z,1018.72
2018-06-25T08:26:09.926Z,1018.85
2018-06-25T08:27:09.857Z,1018.90
2018-06-25T08:28:09.809Z,1018.91
2018-06-25T08:29:09.739Z,1018.82
2018-06-25T08:30:09.693Z,1018.88
2018-06-25T08:31:09.618Z,1018.85
2018-06-25T08:32:09.553Z,1018.79
2018-06-25T08:33:09.484Z,1018.84
2018-06-25T08:34:09.487Z,1018.91
2018-06-25T08:35:09.385Z,1019.07
2018-06-25T08:36:09.298Z,1019.22
2018-06-25T08:37:09.332Z,1019.14
2018-06-25T08:38:09.184Z,1019.27
2018-06-25T08:39:09.152Z,1019.23
2018-06-25T08:40:09.115Z,1019.20
2018-06-25T08:42:37.705Z,1019.10
2018-06-25T08:43:36.315Z,1019.19
2018-06-25T08:45:30.509Z,1019.31
2018-06-25T08:46:31.028Z,1019.38
2018-06-25T08:48:24.949Z,1019.43
2018-06-25T08:49:24.544Z,1019.40
2018-06-25T08:51:17.878Z,1019.45
2018-06-25T08:52:17.786Z,1019.49
2018-06-25T08:53:17.719Z,1019.43
2018-06-25T08:54:17.723Z,1019.50
2018-06-25T08:55:17.638Z,1019.42
2018-06-25T08:56:17.538Z,1019.28
2018-06-25T08:57:18.456Z,1019.25
2018-06-25T08:58:17.416Z,1019.33
2018-06-25T08:59:17.356Z,1019.35
2018-06-25T09:00:17.300Z,1019.41
2018-06-25T09:01:17.291Z,1019.51
2018-06-25T09:02:17.917Z,1019.52
2018-06-25T09:03:17.181Z,1019.48
2018-06-25T09:04:17.095Z,1019.49
2018-06-25T09:05:17.088Z,1019.43
2018-06-25T09:06:16.974Z,1019.42
2018-06-25T09:07:16.876Z,1019.47
2018-06-25T09:08:16.806Z,1019.48
2018-06-25T09:09:16.764Z,1019.35
2018-06-25T09:10:16.694Z,1019.36
2018-06-25T09:11:16.648Z,1019.38
2018-06-25T09:12:16.589Z,1019.32
2018-06-25T09:13:16.510Z,1019.17
2018-06-25T09:14:16.474Z,1019.22
2018-06-25T09:15:16.423Z,1019.20
2018-06-25T09:16:16.326Z,1019.15
2018-06-25T09:17:16.289Z,1019.28
2018-06-25T09:18:16.218Z,1019.38
2018-06-25T09:19:16.153Z,1019.54
2018-06-25T09:20:16.108Z,1019.51
2018-06-25T09:21:16.043Z,1019.38
2018-06-25T09:22:15.979Z,1019.27
2018-06-25T09:23:15.927Z,1019.23
2018-06-25T09:24:15.857Z,1019.17
2018-06-25T09:25:15.797Z,1019.23
2018-06-25T09:26:15.747Z,1019.19
2018-06-25T09:27:15.675Z,1019.17
2018-06-25T09:28:15.639Z,1019.20
2018-06-25T09:29:15.574Z,1019.20
2018-06-25T09:30:15.508Z,1019.33
2018-06-25T09:31:15.458Z,1019.26
2018-06-25T09:32:15.595Z,1019.14
2018-06-25T09:33:15.311Z,1019.16
2018-06-25T09:34:15.246Z,1019.25
2018-06-25T09:35:15.221Z,1019.21
2018-06-25T09:36:15.142Z,1019.10
2018-06-25T09:37:15.081Z,1019.21
2018-06-25T09:38:15.009Z,1019.35
2018-06-25T09:39:14.971Z,1019.40
2018-06-25T09:40:14.913Z,1019.39
2018-06-25T09:41:14.863Z,1019.32
2018-06-25T09:42:14.772Z,1019.24
2018-06-25T09:43:14.722Z,1019.30
2018-06-25T09:44:14.661Z,1019.41
2018-06-25T09:45:14.596Z,1019.44
2018-06-25T09:46:14.549Z,1019.53
2018-06-25T09:47:14.472Z,1019.47
2018-06-25T09:48:14.415Z,1019.42
2018-06-25T09:49:14.356Z,1019.38
2018-06-25T09:50:14.301Z,1019.30
2018-06-25T09:51:14.239Z,1019.31
2018-06-25T09:52:14.933Z,1019.30
2018-06-25T09:53:14.132Z,1019.39
2018-06-25T09:54:14.087Z,1019.43
2018-06-25T09:55:13.999Z,1019.29
2018-06-25T09:56:13.991Z,1019.38
2018-06-25T09:57:13.896Z,1019.25
2018-06-25T09:58:13.818Z,1019.23
2018-06-25T09:59:13.780Z,1019.34
2018-06-25T10:00:13.729Z,1019.30
2018-06-25T10:01:13.664Z,1019.24
2018-06-25T10:02:13.603Z,1019.19
2018-06-25T10:03:13.581Z,1019.29
2018-06-25T10:04:13.485Z,1019.24
2018-06-25T10:05:13.447Z,1019.22
2018-06-25T10:06:13.363Z,1019.23
2018-06-25T10:07:13.296Z,1019.34
2018-06-25T10:08:13.264Z,1019.33
2018-06-25T10:09:13.179Z,1019.23
2018-06-25T10:10:13.121Z,1019.22
2018-06-25T10:11:13.068Z,1019.26
2018-06-25T10:12:13.951Z,1019.33
2018-06-25T10:13:12.953Z,1019.34
2018-06-25T10:14:12.913Z,1019.40
2018-06-25T10:15:12.834Z,1019.39
2018-06-25T10:16:12.769Z,1019.33
2018-06-25T10:17:12.722Z,1019.30
2018-06-25T10:18:12.709Z,1019.25
2018-06-25T10:19:12.656Z,1019.25
2018-06-25T10:20:12.535Z,1019.29
2018-06-25T10:21:12.497Z,1019.31
2018-06-25T10:22:12.429Z,1019.35
2018-06-25T10:23:12.363Z,1019.44
2018-06-25T10:24:12.301Z,1019.54
2018-06-25T10:25:12.251Z,1019.60
2018-06-25T10:26:12.189Z,1019.68
2018-06-25T10:27:12.969Z,1019.63
2018-06-25T10:28:12.084Z,1019.51
2018-06-25T10:29:12.007Z,1019.42
2018-06-25T10:30:11.952Z,1019.31
2018-06-25T10:31:11.892Z,1019.24
2018-06-25T10:32:11.833Z,1019.19
2018-06-25T10:33:11.774Z,1019.08
2018-06-25T10:34:11.720Z,1019.09
2018-06-25T10:35:11.662Z,1019.17
2018-06-25T10:36:11.610Z,1019.33
2018-06-25T10:37:11.547Z,1019.39
2018-06-25T10:38:11.484Z,1019.40
2018-06-25T10:39:11.427Z,1019.27
2018-06-25T10:40:11.372Z,1019.26
2018-06-25T10:41:11.310Z,1019.17
2018-06-25T10:42:11.367Z,1019.11
2018-06-25T10:43:11.194Z,1019.17
2018-06-25T10:44:11.138Z,1019.31
2018-06-25T10:45:11.076Z,1019.37
2018-06-25T10:46:11.024Z,1019.40
2018-06-25T10:47:10.963Z,1019.42
2018-06-25T10:48:10.908Z,1019.49
2018-06-25T10:49:10.844Z,1019.36
2018-06-25T10:50:10.789Z,1019.34
2018-06-25T10:51:10.737Z,1019.31
2018-06-25T10:52:10.672Z,1019.33
2018-06-25T10:53:10.619Z,1019.35
2018-06-25T10:54:10.559Z,1019.42
2018-06-25T10:55:10.502Z,1019.34
2018-06-25T10:56:10.450Z,1019.28
2018-06-25T10:57:10.389Z,1019.23
2018-06-25T10:58:10.362Z,1019.21
2018-06-25T10:59:10.275Z,1019.12
2018-06-25T11:00:10.520Z,1019.09
2018-06-25T11:01:10.247Z,1019.02
2018-06-25T11:02:10.101Z,1019.02
2018-06-25T11:03:10.041Z,1018.96
2018-06-25T11:04:09.995Z,1018.98
2018-06-25T11:05:09.944Z,1019.10
2018-06-25T11:06:09.913Z,1019.13
2018-06-25T11:07:09.887Z,1019.24
2018-06-25T11:08:09.762Z,1019.22
2018-06-25T11:09:09.707Z,1019.31
2018-06-25T11:10:09.653Z,1019.43
2018-06-25T11:11:09.588Z,1019.45
2018-06-25T11:12:09.553Z,1019.44
2018-06-25T11:13:09.483Z,1019.37
2018-06-25T11:14:09.422Z,1019.32
2018-06-25T11:15:09.367Z,1019.23
2018-06-25T11:16:09.309Z,1019.05
2018-06-25T11:17:09.253Z,1018.95
2018-06-25T11:18:09.214Z,1018.97
2018-06-25T11:19:09.150Z,1018.93
2018-06-25T11:20:09.085Z,1019.02
2018-06-25T11:21:09.026Z,1019.08
2018-06-25T11:22:08.971Z,1018.89
2018-06-25T11:23:08.917Z,1018.83
2018-06-25T11:24:08.859Z,1019.58
2018-06-25T11:25:08.808Z,1019.52
2018-06-25T11:26:08.747Z,1018.81
2018-06-25T11:27:08.801Z,1019.33
2018-06-25T11:28:08.641Z,1019.33
2018-06-25T11:29:08.584Z,1019.34
2018-06-25T11:30:08.537Z,1018.44
2018-06-25T11:31:08.480Z,1019.39
2018-06-25T11:32:08.425Z,1019.65
2018-06-25T11:33:08.370Z,1019.75
2018-06-25T11:34:08.313Z,1019.91
2018-06-25T11:35:08.273Z,1019.86
2018-06-25T11:36:08.209Z,1019.87
2018-06-25T11:37:08.161Z,1019.90
2018-06-25T11:38:08.105Z,1019.52
2018-06-25T11:39:08.055Z,1019.89
2018-06-25T11:40:08.010Z,1019.98
2018-06-25T11:41:07.951Z,1020.00
2018-06-25T11:42:07.902Z,1020.03
2018-06-25T11:43:07.852Z,1020.12
2018-06-25T11:44:07.804Z,1019.36
2018-06-25T11:45:07.753Z,1019.12
2018-06-25T11:46:07.706Z,1019.05
2018-06-25T11:47:07.657Z,1018.94
2018-06-25T11:48:07.600Z,1018.89
2018-06-25T11:49:07.550Z,1018.76
2018-06-25T11:50:07.508Z,1018.71
2018-06-25T11:51:07.453Z,1018.77
2018-06-25T11:52:07.405Z,1018.90
2018-06-25T11:53:07.370Z,1019.02
2018-06-25T11:54:07.302Z,1019.02
2018-06-25T11:55:07.250Z,1019.09
2018-06-25T11:56:07.198Z,1019.13
2018-06-25T11:57:07.139Z,1019.30
2018-06-25T11:58:07.093Z,1019.53
2018-06-25T11:59:07.037Z,1019.61
2018-06-25T12:00:07.028Z,1019.72
2018-06-25T12:01:06.955Z,1020.02
2018-06-25T12:02:06.951Z,1020.54
2018-06-25T12:03:07.007Z,1019.88
2018-06-25T12:04:06.797Z,1021.01
2018-06-25T12:05:06.731Z,1020.28
2018-06-25T12:06:06.664Z,1021.19
2018-06-25T12:07:06.621Z,1020.53
2018-06-25T12:08:06.562Z,1021.21
2018-06-25T12:09:06.514Z,1021.05
2018-06-25T12:10:06.466Z,1020.92
2018-06-25T12:11:06.417Z,1020.06
2018-06-25T12:12:06.425Z,1020.21
2018-06-25T12:13:06.312Z,1019.45
2018-06-25T12:14:06.300Z,1019.43
2018-06-25T12:15:06.212Z,1019.48
2018-06-25T12:16:06.175Z,1019.74
2018-06-25T12:17:06.116Z,1019.67
2018-06-25T12:18:06.070Z,1019.68
2018-06-25T12:19:06.044Z,1019.77